createdAt,value
2023-08-25T00:00:40.753Z,24.04
2023-08-25T00:01:40.842Z,23.95
2023-08-25T00:02:40.869Z,23.90
2023-08-25T00:03:40.789Z,23.82
2023-08-25T00:04:40.716Z,23.85
2023-08-25T00:05:40.719Z,23.85
2023-08-25T00:06:40.726Z,23.82
2023-08-25T00:07:40.695Z,23.90
2023-08-25T00:08:40.665Z,23.86
2023-08-25T00:09:40.659Z,23.97
2023-08-25T00:10:40.642Z,23.97
2023-08-25T00:11:40.657Z,23.92
2023-08-25T00:12:40.627Z,23.95
2023-08-25T00:13:40.613Z,23.92
2023-08-25T00:14:40.615Z,23.90
2023-08-25T00:15:40.650Z,23.92
2023-08-25T00:16:40.597Z,24.00
2023-08-25T00:17:40.595Z,24.01
2023-08-25T00:18:40.559Z,23.85
2023-08-25T00:19:40.551Z,23.85
2023-08-25T00:20:40.559Z,23.86
2023-08-25T00:21:40.539Z,23.71
2023-08-25T00:22:40.532Z,23.76
2023-08-25T00:23:40.511Z,23.76
2023-08-25T00:24:40.497Z,23.70
2023-08-25T00:25:40.496Z,23.80
2023-08-25T00:26:40.473Z,23.80
2023-08-25T00:27:40.459Z,23.79
2023-08-25T00:28:40.456Z,23.82
2023-08-25T00:29:40.438Z,23.80
2023-08-25T00:30:40.465Z,23.86
2023-08-25T00:31:40.583Z,23.92
2023-08-25T00:32:40.544Z,23.87
2023-08-25T00:33:40.398Z,23.86
2023-08-25T00:34:40.409Z,23.95
2023-08-25T00:35:40.427Z,24.02
2023-08-25T00:36:40.366Z,24.05
2023-08-25T00:37:40.359Z,24.05
2023-08-25T00:38:40.344Z,24.16
2023-08-25T00:39:40.373Z,24.13
2023-08-25T00:40:40.336Z,24.10
2023-08-25T00:41:40.315Z,24.08
2023-08-25T00:42:40.309Z,24.05
2023-08-25T00:43:40.307Z,24.05
2023-08-25T00:44:40.297Z,24.02
2023-08-25T00:45:40.278Z,24.04
2023-08-25T00:46:40.347Z,23.94
2023-08-25T00:47:40.268Z,23.85
2023-08-25T00:48:40.252Z,23.70
2023-08-25T00:49:40.239Z,23.72
2023-08-25T00:50:40.218Z,23.72
2023-08-25T00:51:40.206Z,23.62
2023-08-25T00:52:40.194Z,23.58
2023-08-25T00:53:40.193Z,23.50
2023-08-25T00:54:40.188Z,23.49
2023-08-25T00:55:40.166Z,23.49
2023-08-25T00:56:40.154Z,23.42
2023-08-25T00:57:40.146Z,23.34
2023-08-25T00:58:40.164Z,23.34
2023-08-25T00:59:40.129Z,23.40
2023-08-25T01:00:40.132Z,23.42
2023-08-25T01:01:40.101Z,23.43
2023-08-25T01:02:40.144Z,23.42
2023-08-25T01:03:40.095Z,23.49
2023-08-25T01:04:40.064Z,23.49
2023-08-25T01:05:40.056Z,23.49
2023-08-25T01:06:40.048Z,23.45
2023-08-25T01:07:40.076Z,23.43
2023-08-25T01:08:40.026Z,23.46
2023-08-25T01:09:40.014Z,23.49
2023-08-25T01:10:40.004Z,23.43
2023-08-25T01:11:39.990Z,23.45
2023-08-25T01:12:40.001Z,23.53
2023-08-25T01:13:39.969Z,23.65
2023-08-25T01:14:39.962Z,23.70
2023-08-25T01:15:39.952Z,23.76
2023-08-25T01:16:39.979Z,23.68
2023-08-25T01:17:39.958Z,23.79
2023-08-25T01:18:39.938Z,23.75
2023-08-25T01:19:39.903Z,23.77
2023-08-25T01:20:39.896Z,23.80
2023-08-25T01:21:39.900Z,23.82
2023-08-25T01:22:39.872Z,23.90
2023-08-25T01:23:39.877Z,23.86
2023-08-25T01:24:39.851Z,23.83
2023-08-25T01:25:39.842Z,23.86
2023-08-25T01:26:39.866Z,23.68
2023-08-25T01:27:39.886Z,23.62
2023-08-25T01:28:39.806Z,23.60
2023-08-25T01:29:39.807Z,23.45
2023-08-25T01:30:39.901Z,23.39
2023-08-25T01:31:39.792Z,23.40
2023-08-25T01:32:39.801Z,23.42
2023-08-25T01:33:39.754Z,23.38
2023-08-25T01:34:39.764Z,23.42
2023-08-25T01:35:39.764Z,23.49
2023-08-25T01:36:39.730Z,23.42
2023-08-25T01:37:39.708Z,23.46
2023-08-25T01:38:39.694Z,23.57
2023-08-25T01:39:39.684Z,23.60
2023-08-25T01:40:39.704Z,23.60
2023-08-25T01:41:39.667Z,23.52
2023-08-25T01:42:39.654Z,23.50
2023-08-25T01:43:39.644Z,23.61
2023-08-25T01:44:39.651Z,23.61
2023-08-25T01:45:39.638Z,23.64
2023-08-25T01:46:39.607Z,23.60
2023-08-25T01:47:39.627Z,23.62
2023-08-25T01:48:39.582Z,23.67
2023-08-25T01:49:39.599Z,23.52
2023-08-25T01:50:39.581Z,23.46
2023-08-25T01:51:39.552Z,23.45
2023-08-25T01:52:39.537Z,23.39
2023-08-25T01:53:39.534Z,23.40
2023-08-25T01:54:39.548Z,23.47
2023-08-25T01:55:39.505Z,23.42
2023-08-25T01:56:39.497Z,23.34
2023-08-25T01:57:39.485Z,23.43
2023-08-25T01:58:39.487Z,23.35
2023-08-25T01:59:39.491Z,23.39
2023-08-25T02:00:39.449Z,23.50
2023-08-25T02:01:39.486Z,23.47
2023-08-25T02:02:39.457Z,23.50
2023-08-25T02:03:39.444Z,23.53
2023-08-25T02:04:39.424Z,23.55
2023-08-25T02:05:39.586Z,23.57
2023-08-25T02:06:39.408Z,23.47
2023-08-25T02:07:39.379Z,23.42
2023-08-25T02:08:39.389Z,23.31
2023-08-25T02:09:39.352Z,23.24
2023-08-25T02:10:39.340Z,23.19
2023-08-25T02:11:39.333Z,23.11
2023-08-25T02:12:39.328Z,23.15
2023-08-25T02:13:39.345Z,23.14
2023-08-25T02:14:39.298Z,23.19
2023-08-25T02:15:39.288Z,23.19
2023-08-25T02:16:39.321Z,23.11
2023-08-25T02:17:39.317Z,23.19
2023-08-25T02:18:39.268Z,23.17
2023-08-25T02:19:39.245Z,23.19
2023-08-25T02:20:39.234Z,23.29
2023-08-25T02:21:39.244Z,23.26
2023-08-25T02:22:39.615Z,23.23
2023-08-25T02:23:39.203Z,23.26
2023-08-25T02:24:39.189Z,23.12
2023-08-25T02:25:39.186Z,23.27
2023-08-25T02:26:39.195Z,23.23
2023-08-25T02:27:39.173Z,23.27
2023-08-25T02:28:39.150Z,23.27
2023-08-25T02:29:39.141Z,23.26
2023-08-25T02:30:39.126Z,23.26
2023-08-25T02:31:39.166Z,23.19
2023-08-25T02:32:39.133Z,23.22
2023-08-25T02:33:39.100Z,23.26
2023-08-25T02:34:39.097Z,23.23
2023-08-25T02:35:39.080Z,23.29
2023-08-25T02:36:39.102Z,23.29
2023-08-25T02:37:39.054Z,23.47
2023-08-25T02:38:39.085Z,23.43
2023-08-25T02:39:39.028Z,23.45
2023-08-25T02:40:39.076Z,23.55
2023-08-25T02:41:39.021Z,23.57
2023-08-25T02:42:38.994Z,23.60
2023-08-25T02:43:38.983Z,23.55
2023-08-25T02:44:38.977Z,23.60
2023-08-25T02:45:39.046Z,23.68
2023-08-25T02:46:38.960Z,23.64
2023-08-25T02:47:38.952Z,23.61
2023-08-25T02:48:38.934Z,23.62
2023-08-25T02:49:38.925Z,23.68
2023-08-25T02:50:38.936Z,23.64
2023-08-25T02:51:38.903Z,23.62
2023-08-25T02:52:38.890Z,23.61
2023-08-25T02:53:38.884Z,23.64
2023-08-25T02:54:38.893Z,23.65
2023-08-25T02:55:38.871Z,23.68
2023-08-25T02:56:38.848Z,23.68
2023-08-25T02:57:38.834Z,23.72
2023-08-25T02:58:38.821Z,23.70
2023-08-25T02:59:38.853Z,23.70
2023-08-25T03:00:38.805Z,23.65
2023-08-25T03:01:38.843Z,23.80
2023-08-25T03:02:38.862Z,23.65
2023-08-25T03:03:38.782Z,23.75
2023-08-25T03:04:38.793Z,23.76
2023-08-25T03:05:38.749Z,23.65
2023-08-25T03:06:38.754Z,23.70
2023-08-25T03:07:38.728Z,23.75
2023-08-25T03:08:38.714Z,23.72
2023-08-25T03:09:38.729Z,23.68
2023-08-25T03:10:38.722Z,23.65
2023-08-25T03:11:38.681Z,23.64
2023-08-25T03:12:38.676Z,23.64
2023-08-25T03:13:38.696Z,23.58
2023-08-25T03:14:38.665Z,23.45
2023-08-25T03:15:38.650Z,23.47
2023-08-25T03:16:38.658Z,23.49
2023-08-25T03:17:38.641Z,23.55
2023-08-25T03:18:38.624Z,23.50
2023-08-25T03:19:38.609Z,23.57
2023-08-25T03:20:38.592Z,23.57
2023-08-25T03:21:38.575Z,23.55
2023-08-25T03:22:38.589Z,23.64
2023-08-25T03:23:38.650Z,23.55
2023-08-25T03:24:38.544Z,23.61
2023-08-25T03:25:38.532Z,23.57
2023-08-25T03:26:38.542Z,23.62
2023-08-25T03:27:38.543Z,23.65
2023-08-25T03:28:38.524Z,23.62
2023-08-25T03:29:38.487Z,23.64
2023-08-25T03:30:38.488Z,23.67
2023-08-25T03:31:38.498Z,23.62
2023-08-25T03:32:38.541Z,23.67
2023-08-25T03:33:38.447Z,23.70
2023-08-25T03:34:38.436Z,23.67
2023-08-25T03:35:38.429Z,23.65
2023-08-25T03:36:38.416Z,23.75
2023-08-25T03:37:38.447Z,23.76
2023-08-25T03:38:38.391Z,23.72
2023-08-25T03:39:38.381Z,23.72
2023-08-25T03:40:38.387Z,23.65
2023-08-25T03:41:38.372Z,23.75
2023-08-25T03:42:38.377Z,23.70
2023-08-25T03:43:38.358Z,23.77
2023-08-25T03:44:38.342Z,23.76
2023-08-25T03:45:38.320Z,23.75
2023-08-25T03:46:38.335Z,23.75
2023-08-25T03:47:38.319Z,23.80
2023-08-25T03:48:38.283Z,23.75
2023-08-25T03:49:38.285Z,23.80
2023-08-25T03:50:38.276Z,23.79
2023-08-25T03:51:38.273Z,23.75
2023-08-25T03:52:38.239Z,23.70
2023-08-25T03:53:38.231Z,23.61
2023-08-25T03:54:38.218Z,23.72
2023-08-25T03:55:38.238Z,23.64
2023-08-25T03:56:38.208Z,23.76
2023-08-25T03:57:38.188Z,23.70
2023-08-25T03:58:38.201Z,23.68
2023-08-25T03:59:38.170Z,23.65
2023-08-25T04:00:38.209Z,23.72
2023-08-25T04:01:38.164Z,23.70
2023-08-25T04:02:38.156Z,23.65
2023-08-25T04:03:38.135Z,23.67
2023-08-25T04:04:38.112Z,23.71
2023-08-25T04:05:38.127Z,23.64
2023-08-25T04:06:38.086Z,23.68
2023-08-25T04:07:38.076Z,23.70
2023-08-25T04:08:38.069Z,23.64
2023-08-25T04:09:38.081Z,23.65
2023-08-25T04:10:38.057Z,23.60
2023-08-25T04:11:38.041Z,23.64
2023-08-25T04:12:38.032Z,23.70
2023-08-25T04:13:38.021Z,23.65
2023-08-25T04:14:38.039Z,23.61
2023-08-25T04:15:37.992Z,23.62
2023-08-25T04:16:38.030Z,23.62
2023-08-25T04:17:38.043Z,23.60
2023-08-25T04:18:37.958Z,23.64
2023-08-25T04:19:37.961Z,23.64
2023-08-25T04:20:37.954Z,23.64
2023-08-25T04:21:37.936Z,23.62
2023-08-25T04:22:37.926Z,23.65
2023-08-25T04:23:37.907Z,23.65
2023-08-25T04:24:37.909Z,23.65
2023-08-25T04:25:37.884Z,23.60
2023-08-25T04:26:37.871Z,23.68
2023-08-25T04:27:37.871Z,23.60
2023-08-25T04:28:37.858Z,23.70
2023-08-25T04:29:44.920Z,23.64
2023-08-25T04:30:37.853Z,23.64
2023-08-25T04:31:37.827Z,23.65
2023-08-25T04:32:37.835Z,23.68
2023-08-25T04:33:38.114Z,23.70
2023-08-25T04:34:37.796Z,23.70
2023-08-25T04:35:37.776Z,23.64
2023-08-25T04:36:37.816Z,23.75
2023-08-25T04:37:37.760Z,23.67
2023-08-25T04:38:37.750Z,23.70
2023-08-25T04:39:37.757Z,23.80
2023-08-25T04:40:37.721Z,23.83
2023-08-25T04:41:37.707Z,23.75
2023-08-25T04:42:39.176Z,23.82
2023-08-25T04:43:37.701Z,23.83
2023-08-25T04:44:37.679Z,23.79
2023-08-25T04:45:37.694Z,23.89
2023-08-25T04:46:37.665Z,23.77
2023-08-25T04:47:37.677Z,23.85
2023-08-25T04:48:38.728Z,23.90
2023-08-25T04:49:37.621Z,23.89
2023-08-25T04:50:37.628Z,23.92
2023-08-25T04:51:37.640Z,23.90
2023-08-25T04:52:37.606Z,23.97
2023-08-25T04:53:37.587Z,24.04
2023-08-25T04:54:37.567Z,24.05
2023-08-25T04:55:37.564Z,24.10
2023-08-25T04:56:37.563Z,24.07
2023-08-25T04:57:37.549Z,24.13
2023-08-25T04:58:37.552Z,24.26
2023-08-25T04:59:37.512Z,24.17
2023-08-25T05:00:37.584Z,24.27
2023-08-25T05:01:37.589Z,24.22
2023-08-25T05:02:37.561Z,24.22
2023-08-25T05:03:37.559Z,24.34
2023-08-25T05:04:37.476Z,24.38
2023-08-25T05:05:37.459Z,24.38
2023-08-25T05:06:37.653Z,24.37
2023-08-25T05:07:38.139Z,24.34
2023-08-25T05:08:37.414Z,24.32
2023-08-25T05:09:37.402Z,24.35
2023-08-25T05:10:37.407Z,24.38
2023-08-25T05:11:37.458Z,24.38
2023-08-25T05:12:37.365Z,24.31
2023-08-25T05:13:37.355Z,24.35
2023-08-25T05:14:37.343Z,24.32
2023-08-25T05:15:37.530Z,24.35
2023-08-25T05:16:37.364Z,24.34
2023-08-25T05:17:37.325Z,24.29
2023-08-25T05:18:37.363Z,24.37
2023-08-25T05:19:37.288Z,24.29
2023-08-25T05:20:37.300Z,24.37
2023-08-25T05:21:37.277Z,24.34
2023-08-25T05:22:37.257Z,24.32
2023-08-25T05:23:37.253Z,24.37
2023-08-25T05:24:37.290Z,24.41
2023-08-25T05:25:37.225Z,24.47
2023-08-25T05:26:37.332Z,24.47
2023-08-25T05:27:37.345Z,24.56
2023-08-25T05:28:37.192Z,24.64
2023-08-25T05:29:37.179Z,24.67
2023-08-25T05:30:37.169Z,24.77
2023-08-25T05:31:37.219Z,24.76
2023-08-25T05:32:37.274Z,24.82
2023-08-25T05:33:37.178Z,24.92
2023-08-25T05:34:37.120Z,24.92
2023-08-25T05:35:37.112Z,25.01
2023-08-25T05:36:37.118Z,25.12
2023-08-25T05:37:37.101Z,25.07
2023-08-25T05:38:37.076Z,25.10
2023-08-25T05:39:37.095Z,25.12
2023-08-25T05:40:37.096Z,25.13
2023-08-25T05:41:37.075Z,25.13
2023-08-25T05:42:37.034Z,25.13
2023-08-25T05:43:37.027Z,25.13
2023-08-25T05:44:37.027Z,25.06
2023-08-25T05:45:37.012Z,25.07
2023-08-25T05:46:37.012Z,25.05
2023-08-25T05:47:36.996Z,25.00
2023-08-25T05:48:36.995Z,24.98
2023-08-25T05:49:36.979Z,25.12
2023-08-25T05:50:36.983Z,25.15
2023-08-25T05:51:36.978Z,25.15
2023-08-25T05:52:36.926Z,25.09
2023-08-25T05:53:36.912Z,25.22
2023-08-25T05:54:36.934Z,25.27
2023-08-25T05:55:36.903Z,25.30
2023-08-25T05:56:36.881Z,25.28
2023-08-25T05:57:36.870Z,25.28
2023-08-25T05:58:36.865Z,25.39
2023-08-25T05:59:36.862Z,25.46
2023-08-25T06:00:36.856Z,25.53
2023-08-25T06:01:36.868Z,25.57
2023-08-25T06:02:36.855Z,25.53
2023-08-25T06:03:36.854Z,25.56
2023-08-25T06:04:36.817Z,25.56
2023-08-25T06:05:36.802Z,25.53
2023-08-25T06:06:36.768Z,25.56
2023-08-25T06:07:36.760Z,25.68
2023-08-25T06:08:36.750Z,25.71
2023-08-25T06:09:36.752Z,25.79
2023-08-25T06:10:36.725Z,25.82
2023-08-25T06:11:36.719Z,25.94
2023-08-25T06:12:36.703Z,25.91
2023-08-25T06:13:36.703Z,26.09
2023-08-25T06:14:36.721Z,26.05
2023-08-25T06:15:36.676Z,26.04
2023-08-25T06:16:36.679Z,26.12
2023-08-25T06:17:36.742Z,26.02
2023-08-25T06:18:36.654Z,26.05
2023-08-25T06:19:36.633Z,26.09
2023-08-25T06:20:36.620Z,26.15
2023-08-25T06:21:36.629Z,26.18
2023-08-25T06:22:36.604Z,26.15
2023-08-25T06:23:36.603Z,26.28
2023-08-25T06:24:36.583Z,26.32
2023-08-25T06:25:36.569Z,26.32
2023-08-25T06:26:36.558Z,26.42
2023-08-25T06:27:36.555Z,26.37
2023-08-25T06:28:36.575Z,26.39
2023-08-25T06:29:36.520Z,26.42
2023-08-25T06:30:36.515Z,26.43
2023-08-25T06:31:36.549Z,26.47
2023-08-25T06:32:36.507Z,26.40
2023-08-25T06:33:36.497Z,26.46
2023-08-25T06:34:36.485Z,26.50
2023-08-25T06:35:36.457Z,26.52
2023-08-25T06:36:36.454Z,26.54
2023-08-25T06:37:36.469Z,26.55
2023-08-25T06:38:49.979Z,26.64
2023-08-25T06:39:37.416Z,26.67
2023-08-25T06:40:36.416Z,26.72
2023-08-25T06:41:36.398Z,26.76
2023-08-25T06:42:36.404Z,26.92
2023-08-25T06:43:36.375Z,27.01
2023-08-25T06:44:36.373Z,27.11
2023-08-25T06:45:36.421Z,27.29
2023-08-25T06:46:36.361Z,27.39
2023-08-25T06:47:36.373Z,27.71
2023-08-25T06:48:36.324Z,27.88
2023-08-25T06:49:36.317Z,28.03
2023-08-25T06:50:36.308Z,28.11
2023-08-25T06:51:36.310Z,28.33
2023-08-25T06:52:36.280Z,28.44
2023-08-25T06:53:36.293Z,28.73
2023-08-25T06:54:36.264Z,28.97
2023-08-25T06:55:36.282Z,29.18
2023-08-25T06:56:36.249Z,29.35
2023-08-25T06:57:36.231Z,29.53
2023-08-25T06:58:36.226Z,29.62
2023-08-25T06:59:36.300Z,29.89
2023-08-25T07:00:36.219Z,29.99
2023-08-25T07:01:36.254Z,30.16
2023-08-25T07:02:36.209Z,30.46
2023-08-25T07:03:36.421Z,30.69
2023-08-25T07:04:36.157Z,30.94
2023-08-25T07:05:36.157Z,31.18
2023-08-25T07:06:36.133Z,31.31
2023-08-25T07:07:36.169Z,31.50
2023-08-25T07:08:36.110Z,31.70
2023-08-25T07:09:36.186Z,31.87
2023-08-25T07:10:36.125Z,32.00
2023-08-25T07:11:36.088Z,32.15
2023-08-25T07:12:36.096Z,32.37
2023-08-25T07:13:36.106Z,32.70
2023-08-25T07:14:36.066Z,32.80
2023-08-25T07:15:36.123Z,32.95
2023-08-25T07:16:36.029Z,33.07
2023-08-25T07:17:36.107Z,33.19
2023-08-25T07:18:36.010Z,33.41
2023-08-25T07:19:36.014Z,33.42
2023-08-25T07:20:35.995Z,33.55
2023-08-25T07:21:35.982Z,33.57
2023-08-25T07:22:35.982Z,33.65
2023-08-25T07:23:35.960Z,33.49
2023-08-25T07:24:35.979Z,33.60
2023-08-25T07:25:35.961Z,33.71
2023-08-25T07:26:35.930Z,33.92
2023-08-25T07:27:35.925Z,33.92
2023-08-25T07:28:35.913Z,33.92
2023-08-25T07:29:35.909Z,34.05
2023-08-25T07:30:35.916Z,34.00
2023-08-25T07:31:35.906Z,34.02
2023-08-25T07:32:35.894Z,34.13
2023-08-25T07:33:35.858Z,34.29
2023-08-25T07:34:35.863Z,34.45
2023-08-25T07:35:35.849Z,34.54
2023-08-25T07:36:35.833Z,34.74
2023-08-25T07:37:35.829Z,34.54
2023-08-25T07:38:35.834Z,34.74
2023-08-25T07:39:35.804Z,34.69
2023-08-25T07:40:35.820Z,34.96
2023-08-25T07:41:35.817Z,34.98
2023-08-25T07:42:35.777Z,35.25
2023-08-25T07:43:35.763Z,35.35
2023-08-25T07:44:35.773Z,35.35
2023-08-25T07:45:35.761Z,35.52
2023-08-25T07:46:35.745Z,35.62
2023-08-25T07:47:35.774Z,35.74
2023-08-25T07:48:36.231Z,35.67
2023-08-25T07:49:35.732Z,35.84
2023-08-25T07:50:35.725Z,35.76
2023-08-25T07:51:40.265Z,35.81
2023-08-25T07:52:36.674Z,35.72
2023-08-25T07:53:35.674Z,35.88
2023-08-25T07:54:35.682Z,36.07
2023-08-25T07:55:35.649Z,36.12
2023-08-25T07:56:35.642Z,36.15
2023-08-25T07:57:35.650Z,36.08
2023-08-25T07:58:35.709Z,36.12
2023-08-25T07:59:35.629Z,36.33
2023-08-25T08:00:35.627Z,36.41
2023-08-25T08:01:35.593Z,36.42
2023-08-25T08:02:35.608Z,36.43
2023-08-25T08:03:35.622Z,36.67
2023-08-25T08:04:35.570Z,36.65
2023-08-25T08:05:35.613Z,36.92
2023-08-25T08:06:35.547Z,37.26
2023-08-25T08:07:35.540Z,37.23
2023-08-25T08:08:35.614Z,37.26
2023-08-25T08:09:35.587Z,37.32
2023-08-25T08:10:35.520Z,37.17
2023-08-25T08:11:35.506Z,37.20
2023-08-25T08:12:35.491Z,37.07
2023-08-25T08:13:35.525Z,37.01
2023-08-25T08:14:44.257Z,37.23
2023-08-25T08:15:36.477Z,37.24
2023-08-25T08:16:38.110Z,37.43
2023-08-25T08:17:35.516Z,37.62
2023-08-25T08:18:35.450Z,37.68
2023-08-25T08:19:35.442Z,37.73
2023-08-25T08:20:35.424Z,37.76
2023-08-25T08:21:35.430Z,37.66
2023-08-25T08:22:35.437Z,37.59
2023-08-25T08:23:35.386Z,38.01
2023-08-25T08:24:48.121Z,38.15
2023-08-25T08:25:36.371Z,38.12
2023-08-25T08:26:35.387Z,38.20
2023-08-25T08:27:35.344Z,38.36
2023-08-25T08:28:35.345Z,38.46
2023-08-25T08:29:35.380Z,38.58
2023-08-25T08:30:35.322Z,38.73
2023-08-25T08:31:35.353Z,38.58
2023-08-25T08:32:35.368Z,38.60
2023-08-25T08:33:35.296Z,38.61
2023-08-25T08:34:35.296Z,38.78
2023-08-25T08:35:35.289Z,38.70
2023-08-25T08:36:35.285Z,38.79
2023-08-25T08:37:35.257Z,38.34
2023-08-25T08:38:35.249Z,38.22
2023-08-25T08:39:35.242Z,38.05
2023-08-25T08:40:35.242Z,38.17
2023-08-25T08:41:35.232Z,38.27
2023-08-25T08:42:35.214Z,38.48
2023-08-25T08:43:35.213Z,38.53
2023-08-25T08:44:35.227Z,38.57
2023-08-25T08:45:35.216Z,38.60
2023-08-25T08:46:35.214Z,38.53
2023-08-25T08:47:35.203Z,38.33
2023-08-25T08:48:35.158Z,38.48
2023-08-25T08:49:35.226Z,38.26
2023-08-25T08:50:35.155Z,38.33
2023-08-25T08:51:35.130Z,38.22
2023-08-25T08:52:35.131Z,37.98
2023-08-25T08:53:35.116Z,37.98
2023-08-25T08:54:35.120Z,38.08
2023-08-25T08:55:35.094Z,38.05
2023-08-25T08:56:35.104Z,38.15
2023-08-25T08:57:35.197Z,38.34
2023-08-25T08:58:35.070Z,38.22
2023-08-25T08:59:35.118Z,38.39
2023-08-25T09:00:35.073Z,38.67
2023-08-25T09:01:35.174Z,38.58
2023-08-25T09:02:35.081Z,38.67
2023-08-25T09:03:35.033Z,38.75
2023-08-25T09:04:35.075Z,39.03
2023-08-25T09:05:35.005Z,39.25
2023-08-25T09:06:35.000Z,39.37
2023-08-25T09:07:34.992Z,39.46
2023-08-25T09:08:34.999Z,39.51
2023-08-25T09:09:34.980Z,39.71
2023-08-25T09:10:35.025Z,39.96
2023-08-25T09:11:34.966Z,39.98
2023-08-25T09:12:34.943Z,40.08
2023-08-25T09:13:34.944Z,39.93
2023-08-25T09:14:34.932Z,40.05
2023-08-25T09:15:35.413Z,39.69
2023-08-25T09:16:34.926Z,39.33
2023-08-25T09:17:34.963Z,39.06
2023-08-25T09:18:34.913Z,38.83
2023-08-25T09:19:34.912Z,38.64
2023-08-25T09:20:35.033Z,38.38
2023-08-25T09:21:34.864Z,37.64
2023-08-25T09:22:34.892Z,37.67
2023-08-25T09:23:34.858Z,37.86
2023-08-25T09:24:34.840Z,37.81
2023-08-25T09:25:34.831Z,37.88
2023-08-25T09:26:34.817Z,37.80
2023-08-25T09:27:34.824Z,37.68
2023-08-25T09:28:34.806Z,38.03
2023-08-25T09:29:34.796Z,38.33
2023-08-25T09:30:34.841Z,38.46
2023-08-25T09:31:34.784Z,38.36
2023-08-25T09:32:34.867Z,38.48
2023-08-25T09:33:34.777Z,38.45
2023-08-25T09:34:34.750Z,38.53
2023-08-25T09:35:34.744Z,38.11
2023-08-25T09:36:34.748Z,38.17
2023-08-25T09:37:34.743Z,37.68
2023-08-25T09:38:39.398Z,37.23
2023-08-25T09:39:35.700Z,37.04
2023-08-25T09:40:34.696Z,36.94
2023-08-25T09:41:34.811Z,36.91
2023-08-25T09:42:34.676Z,36.95
2023-08-25T09:43:34.664Z,36.68
2023-08-25T09:44:34.655Z,36.43
2023-08-25T09:45:34.693Z,36.48
2023-08-25T09:46:34.790Z,36.31
2023-08-25T09:47:34.627Z,36.41
2023-08-25T09:48:34.712Z,36.39
2023-08-25T09:49:34.632Z,36.38
2023-08-25T09:50:34.605Z,36.14
2023-08-25T09:51:34.620Z,36.42
2023-08-25T09:52:34.592Z,36.42
2023-08-25T09:53:34.632Z,36.21
2023-08-25T09:54:34.610Z,36.26
2023-08-25T09:55:34.584Z,36.21
2023-08-25T09:56:34.562Z,36.08
2023-08-25T09:57:34.555Z,36.11
2023-08-25T09:58:34.527Z,35.84
2023-08-25T09:59:34.521Z,35.55
2023-08-25T10:00:34.524Z,35.47
2023-08-25T10:01:34.547Z,35.21
2023-08-25T10:02:34.558Z,35.02
2023-08-25T10:03:34.497Z,34.84
2023-08-25T10:04:34.471Z,34.58
2023-08-25T10:05:34.596Z,34.36
2023-08-25T10:06:34.488Z,34.23
2023-08-25T10:07:34.465Z,34.02
2023-08-25T10:08:34.438Z,33.90
2023-08-25T10:09:34.437Z,33.61
2023-08-25T10:10:34.440Z,33.82
2023-08-25T10:11:34.414Z,33.68
2023-08-25T10:12:34.397Z,33.63
2023-08-25T10:13:34.390Z,33.48
2023-08-25T10:14:34.397Z,33.42
2023-08-25T10:15:34.374Z,33.43
2023-08-25T10:16:34.416Z,33.23
2023-08-25T10:17:34.407Z,33.19
2023-08-25T10:18:34.341Z,33.19
2023-08-25T10:19:34.672Z,33.31
2023-08-25T10:20:34.358Z,33.22
2023-08-25T10:21:34.340Z,33.14
2023-08-25T10:22:34.300Z,33.01
2023-08-25T10:23:34.302Z,32.81
2023-08-25T10:24:34.301Z,32.73
2023-08-25T10:25:35.157Z,32.88
2023-08-25T10:26:34.292Z,32.92
2023-08-25T10:27:34.252Z,32.77
2023-08-25T10:28:34.255Z,32.86
2023-08-25T10:29:34.255Z,32.69
2023-08-25T10:30:34.229Z,32.59
2023-08-25T10:31:34.598Z,32.54
2023-08-25T10:32:34.205Z,32.43
2023-08-25T10:33:34.212Z,32.42
2023-08-25T10:34:34.184Z,32.35
2023-08-25T10:35:34.170Z,32.36
2023-08-25T10:36:34.187Z,32.27
2023-08-25T10:37:34.191Z,32.14
2023-08-25T10:38:34.156Z,32.10
2023-08-25T10:39:34.135Z,31.95
2023-08-25T10:40:34.119Z,32.00
2023-08-25T10:41:34.112Z,31.92
2023-08-25T10:42:34.131Z,31.77
2023-08-25T10:43:34.391Z,31.87
2023-08-25T10:44:34.079Z,31.92
2023-08-25T10:45:34.148Z,31.84
2023-08-25T10:46:43.990Z,31.85
2023-08-25T10:47:35.157Z,31.72
2023-08-25T10:48:37.401Z,31.80
2023-08-25T10:49:34.029Z,31.70
2023-08-25T10:50:34.018Z,31.75
2023-08-25T10:51:34.084Z,31.70
2023-08-25T10:52:34.021Z,31.62
2023-08-25T10:53:34.008Z,31.49
2023-08-25T10:54:33.979Z,31.43
2023-08-25T10:55:34.022Z,31.50
2023-08-25T10:56:33.989Z,31.53
2023-08-25T10:57:33.982Z,31.40
2023-08-25T10:58:33.950Z,31.43
2023-08-25T10:59:33.978Z,31.45
2023-08-25T11:00:33.924Z,31.43
2023-08-25T11:01:33.966Z,31.33
2023-08-25T11:02:33.933Z,31.30
2023-08-25T11:03:33.954Z,31.27
2023-08-25T11:04:33.946Z,31.23
2023-08-25T11:05:33.916Z,31.21
2023-08-25T11:06:33.867Z,31.15
2023-08-25T11:07:33.842Z,31.13
2023-08-25T11:08:33.834Z,31.17
2023-08-25T11:09:33.950Z,31.02
2023-08-25T11:10:33.824Z,30.96
2023-08-25T11:11:33.812Z,30.99
2023-08-25T11:12:33.788Z,30.99
2023-08-25T11:13:33.777Z,30.96
2023-08-25T11:14:33.769Z,30.98
2023-08-25T11:15:33.816Z,30.99
2023-08-25T11:16:33.741Z,30.93
2023-08-25T11:17:33.764Z,30.98
2023-08-25T11:18:33.722Z,30.98
2023-08-25T11:19:33.739Z,30.93
2023-08-25T11:20:33.714Z,30.96
2023-08-25T11:21:33.696Z,30.98
2023-08-25T11:22:33.708Z,30.93
2023-08-25T11:23:33.691Z,31.02
2023-08-25T11:24:33.712Z,31.05
2023-08-25T11:25:33.669Z,31.04
2023-08-25T11:26:33.644Z,31.12
2023-08-25T11:27:33.637Z,31.11
2023-08-25T11:28:33.616Z,31.20
2023-08-25T11:29:33.626Z,31.17
2023-08-25T11:30:33.596Z,31.24
2023-08-25T11:31:33.640Z,31.23
2023-08-25T11:32:33.616Z,31.17
2023-08-25T11:33:33.587Z,31.17
2023-08-25T11:34:33.578Z,31.21
2023-08-25T11:35:33.555Z,31.20
2023-08-25T11:36:33.536Z,31.33
2023-08-25T11:37:33.526Z,31.33
2023-08-25T11:38:33.538Z,31.39
2023-08-25T11:39:33.626Z,31.43
2023-08-25T11:40:33.508Z,31.45
2023-08-25T11:41:33.505Z,31.38
2023-08-25T11:42:33.471Z,31.42
2023-08-25T11:43:33.510Z,31.33
2023-08-25T11:44:33.479Z,31.39
2023-08-25T11:45:33.462Z,31.36
2023-08-25T11:46:33.469Z,31.36
2023-08-25T11:47:33.462Z,31.36
2023-08-25T11:48:33.437Z,31.38
2023-08-25T11:49:33.415Z,31.15
2023-08-25T11:50:33.395Z,31.20
2023-08-25T11:51:33.382Z,31.15
2023-08-25T11:52:33.413Z,31.11
2023-08-25T11:53:33.395Z,31.26
2023-08-25T11:54:33.363Z,31.30
2023-08-25T11:55:33.372Z,31.30
2023-08-25T11:56:33.329Z,31.30
2023-08-25T11:57:33.350Z,31.21
2023-08-25T11:58:33.338Z,31.08
2023-08-25T11:59:33.303Z,31.05
2023-08-25T12:00:33.327Z,31.05
2023-08-25T12:01:33.301Z,31.08
2023-08-25T12:02:33.342Z,31.04
2023-08-25T12:03:33.343Z,31.04
2023-08-25T12:04:33.246Z,30.99
2023-08-25T12:05:33.247Z,31.02
2023-08-25T12:06:33.252Z,31.05
2023-08-25T12:07:33.254Z,31.04
2023-08-25T12:08:33.213Z,31.05
2023-08-25T12:09:33.195Z,30.99
2023-08-25T12:10:33.182Z,30.96
2023-08-25T12:11:33.190Z,30.96
2023-08-25T12:12:33.238Z,30.98
2023-08-25T12:13:33.210Z,30.94
2023-08-25T12:14:33.144Z,30.94
2023-08-25T12:15:33.133Z,30.90
2023-08-25T12:16:33.178Z,30.91
2023-08-25T12:17:33.169Z,30.81
2023-08-25T12:18:33.098Z,30.89
2023-08-25T12:19:33.089Z,30.87
2023-08-25T12:20:33.114Z,30.76
2023-08-25T12:21:33.102Z,30.89
2023-08-25T12:22:33.060Z,30.94
2023-08-25T12:23:33.047Z,30.99
2023-08-25T12:24:33.037Z,30.93
2023-08-25T12:25:33.059Z,30.96
2023-08-25T12:26:33.065Z,30.94
2023-08-25T12:27:33.006Z,30.93
2023-08-25T12:28:32.991Z,30.91
2023-08-25T12:29:33.004Z,31.02
2023-08-25T12:30:33.050Z,30.99
2023-08-25T12:31:33.009Z,30.98
2023-08-25T12:32:32.998Z,30.96
2023-08-25T12:33:32.952Z,30.98
2023-08-25T12:34:32.983Z,30.87
2023-08-25T12:35:32.937Z,30.74
2023-08-25T12:36:32.918Z,30.78
2023-08-25T12:37:32.902Z,30.74
2023-08-25T12:38:32.887Z,30.81
2023-08-25T12:39:32.914Z,30.69
2023-08-25T12:40:32.871Z,30.76
2023-08-25T12:41:32.859Z,30.69
2023-08-25T12:42:32.853Z,30.65
2023-08-25T12:43:32.837Z,30.64
2023-08-25T12:44:32.865Z,30.62
2023-08-25T12:45:32.844Z,30.65
2023-08-25T12:46:32.870Z,30.54
2023-08-25T12:47:32.821Z,30.57
2023-08-25T12:48:33.720Z,30.54
2023-08-25T12:49:32.784Z,30.49
2023-08-25T12:50:32.765Z,30.46
2023-08-25T12:51:36.421Z,30.36
2023-08-25T12:52:32.748Z,30.40